Flight Track Log - Related Links

Times and Time Zones

All times are in EDT time to prevent confusion due to time zone crossing. See the CHQ5018 flight status page for this flight to view local times or setup timezone preferences in your user account.

Time Position Orientation Groundspeed Altitude Reporting Facility
EDT Latitude Longitude Course Direction KTS MPH feet Rate Location/Type
Mon 05:43:27 PM 41.3836 -90.4817 98° East 276 318 6,800  Level Chicago Center
Mon 05:44:29 PM 41.3919 -90.3758 84° East 287 330 9,700 2,661 Climbing Chicago Center
Mon 05:45:31 PM 41.3981 -90.2475 86° East 289 333 12,300 1,597 Climbing Chicago Center
Mon 05:46:33 PM 41.4033 -90.1306 87° East 309 356 13,000 339 Climbing Chicago Center
Mon 05:47:00 PM 41.4334 -89.9126 90° East  Level FlightAware Approximate
Mon 05:47:35 PM 41.4100 -90.0131 86° East 315 362 13,000  Level Chicago Center
Mon 05:48:37 PM 41.4150 -89.9000 87° East 307 353 13,000  Level Chicago Center
Mon 05:49:39 PM 41.4222 -89.7669 86° East 353 406 13,000  Level Chicago Center
Mon 05:50:41 PM 41.4289 -89.6286 86° East 371 427 13,000  Level Chicago Center
Mon 05:51:43 PM 41.4381 -89.4850 85° East 384 442 13,000 -435 Level Chicago Center
Mon 05:52:45 PM 41.4561 -89.3150 82° East 385 443 12,100 -919 Descending Chicago Center
Mon 05:53:47 PM 41.4692 -89.1686 83° East 382 440 11,100 -532 Descending Chicago Center
Mon 05:54:49 PM 41.4808 -89.0344 83° East 369 425 11,000 -48 Descending Chicago Center
Mon 05:55:52 PM 41.4939 -88.8994 83° East 370 426 11,000  Level Chicago Center
Mon 05:56:54 PM 41.5333 -88.7731 67° East 380 437 11,000  Level Chicago Center
Mon 05:57:56 PM 41.5767 -88.6522 64° Northeast 364 419 11,000  Level Chicago Center
Mon 05:58:58 PM 41.6200 -88.5294 65° Northeast 366 421 11,000  Level Chicago Center
Mon 06:00:00 PM 41.6636 -88.4017 65° Northeast 317 365 11,000 -435 Level Chicago Center
Mon 06:01:02 PM 41.7017 -88.3031 63° Northeast 299 344 10,100 -919 Descending Chicago Center
Mon 06:02:04 PM 41.7539 -88.2161 51° Northeast 299 344 9,100 -823 Descending Chicago Center
Mon 06:03:06 PM 41.8019 -88.1342 52° Northeast 279 321 8,400 -823 Descending Chicago Center
Mon 06:04:08 PM 41.8428 -88.0625 53° Northeast 246 283 7,400 -677 Descending Chicago Center
Mon 06:05:10 PM 41.8831 -87.9869 54° Northeast 250 288 7,000 -190 Descending Chicago Center
Mon 06:06:14 PM 41.8833 -87.8833 90° East 212 244 7,000  Level Chicago TRACON
Mon 06:07:14 PM 41.8833 -87.8000 90° East 218 251 7,000 -300 Level Chicago TRACON
Mon 06:08:14 PM 41.8833 -87.7167 90° East 215 247 6,400 -810 Descending Chicago TRACON
Mon 06:09:20 PM 41.8833 -87.6333 90° East 211 243 5,300 -667 Descending Chicago TRACON
Mon 06:10:20 PM 41.8833 -87.5667 90° East 211 243 5,000 -158 Descending Chicago TRACON
Mon 06:11:14 PM 41.8833 -87.4833 90° East 209 241 5,000  Level Chicago TRACON
Mon 06:12:20 PM 41.8833 -87.4000 90° East 205 236 5,000  Level Chicago TRACON
Mon 06:13:20 PM 41.8833 -87.3333 90° East 203 234 5,000  Level Chicago TRACON
Mon 06:14:15 PM 41.8833 -87.2667 90° East 209 241 5,000  Level Chicago TRACON
Mon 06:15:15 PM 41.9167 -87.2333 37° Northeast 202 232 5,000  Level Chicago TRACON
Mon 06:16:15 PM 41.9500 -87.2833 312° West 178 205 5,000  Level Chicago TRACON
Mon 06:17:15 PM 41.9667 -87.3500 289° West 195 224 5,000  Level Chicago TRACON
Mon 06:18:15 PM 41.9667 -87.4167 270° West 180 207 5,000  Level Chicago TRACON
Mon 06:19:15 PM 41.9667 -87.4833 270° West 174 200 5,000  Level Chicago TRACON
Mon 06:20:15 PM 41.9667 -87.5500 270° West 174 200 5,000 -143 Level Chicago TRACON
Mon 06:21:21 PM 41.9667 -87.6167 270° West 171 197 4,700 -650 Descending Chicago TRACON
Mon 06:22:15 PM 41.9667 -87.6667 270° West 170 196 3,700 -1,053 Descending Chicago TRACON
Mon 06:23:15 PM 41.9667 -87.7333 270° West 173 199 2,700 -900 Descending Chicago TRACON
Mon 06:24:15 PM 41.9667 -87.8000 270° West 138 159 1,900 -700 Descending Chicago TRACON
Mon 06:25:15 PM 41.9667 -87.8500 270° West 129 148 1,300 -600 Descending Chicago TRACON

Login

Don't have an account? Register now (free) for customized features, flight alerts, and more!